Maersk Dispatcher — XJAJ — position and weather

sailwx.info

Track history (hours):
 
Tides and Currents Weather Stations Pressure Air Temp Water Temp Dewpoint Dewpoint Depression Visibility Wind Speed Wind Dir Waves Ship Positions

Maersk Dispatcher

Last reported at 2014-Oct-16 23:17 UTC. Time now 2014-Oct-21 10:26 UTC.
Position N 47°28' W 052°05'.

Length 89 m; draft 6.8 m.

Type: Other ship. MMSI: 316013080.

Date/timePositionNaut miles runAvg speedWind from/ knotsBaromVisibWave heightAir tempDewpointWater temp
2014-Oct-16 23:17N 47°28' W 052°05'912.1
2014-Oct-16 22:31N 47°30' W 052°18'1312.2
2014-Oct-16 21:30N 47°33' W 052°36'4 3.5
2014-Oct-16 20:20N 47°34' W 052°42'0 0.0
2014-Oct-16 19:32N 47°34' W 052°42'0 0.0
2014-Oct-15 13:06N 47°34' W 052°42'0 0.0
2014-Oct-15 12:18N 47°34' W 052°42'0 0.0
2014-Oct-15 11:30N 47°34' W 052°42'0 0.0
2014-Oct-15 10:33N 47°34' W 052°42'0 0.0
2014-Oct-15 09:27N 47°34' W 052°42'0 0.0
2014-Oct-15 08:27N 47°34' W 052°42'0 0.0
2014-Oct-15 07:30N 47°34' W 052°42'0 0.0
2014-Oct-15 06:30N 47°34' W 052°42'0 0.0
2014-Oct-15 05:33N 47°34' W 052°42'0 0.0
2014-Oct-15 04:33N 47°34' W 052°42'0 0.0
2014-Oct-15 03:30N 47°34' W 052°42'0 0.0
2014-Oct-15 02:33N 47°34' W 052°42'0 0.0
2014-Oct-15 01:33N 47°34' W 052°42'0 0.0
2014-Oct-15 00:30N 47°34' W 052°42'0 0.0
2014-Oct-14 23:27N 47°34' W 052°42'0 0.0
2014-Oct-14 22:33N 47°34' W 052°42'0 0.0
2014-Oct-14 21:30N 47°34' W 052°42'0 0.0
2014-Oct-14 20:33N 47°34' W 052°42'0 0.0
2014-Oct-14 19:33N 47°34' W 052°42'0 0.0
2014-Oct-14 18:30N 47°34' W 052°42'0 0.0
2014-Oct-14 17:24N 47°34' W 052°42'0 0.0
2014-Oct-14 16:30N 47°34' W 052°42'0 0.0
2014-Oct-14 15:30N 47°34' W 052°42'0 0.0
2014-Oct-14 14:30N 47°34' W 052°42'0 0.0
2014-Oct-14 13:33N 47°34' W 052°42'0 0.0
2014-Oct-14 12:33N 47°34' W 052°42'0 0.0
2014-Oct-14 11:33N 47°34' W 052°42'0 0.1
2014-Oct-14 09:33N 47°34' W 052°42'0 0.0
2014-Oct-14 08:33N 47°34' W 052°42'0 0.0
2014-Oct-14 07:27N 47°34' W 052°42'0 0.0
2014-Oct-14 06:21N 47°34' W 052°42'0 0.0
2014-Oct-14 05:33N 47°34' W 052°42'0 0.0
2014-Oct-14 04:33N 47°34' W 052°42'0 0.0
2014-Oct-14 03:33N 47°34' W 052°42'0 0.0
2014-Oct-14 02:21N 47°34' W 052°42'2 0.1
2014-Oct-13 10:24N 47°34' W 052°39'7 6.5
2014-Oct-13 09:22N 47°32' W 052°29'6 6.7
2014-Oct-13 08:30N 47°30' W 052°21'  
2014-Oct-09 01:31N 47°28' W 052°04'1514.4
2014-Oct-09 00:30N 47°32' W 052°25'1211.2
2014-Oct-08 23:28N 47°34' W 052°42'0 0.0
2014-Oct-08 22:28N 47°34' W 052°42'0 0.0
2014-Oct-08 21:28N 47°34' W 052°42'0 0.0
2014-Oct-08 20:31N 47°34' W 052°42'0 0.0
2014-Oct-08 19:31N 47°34' W 052°42'0 0.0
2014-Oct-08 18:31N 47°34' W 052°42'0 0.0
2014-Oct-08 17:28N 47°34' W 052°42'0 0.0
2014-Oct-08 16:28N 47°34' W 052°42'0 0.0
2014-Oct-08 15:31N 47°34' W 052°42'0 0.0
2014-Oct-08 14:28N 47°34' W 052°42'0 0.0
2014-Oct-08 13:22N 47°34' W 052°42'0 0.0
2014-Oct-08 12:28N 47°34' W 052°42'0 0.0
2014-Oct-08 11:22N 47°34' W 052°42'0 0.0
2014-Oct-08 10:28N 47°34' W 052°42'0 0.0
2014-Oct-08 09:28N 47°34' W 052°42'0 0.0
2014-Oct-08 08:28N 47°34' W 052°42'0 0.0
2014-Oct-08 07:28N 47°34' W 052°42'0 0.0
2014-Oct-08 06:28N 47°34' W 052°42'0 0.0
2014-Oct-08 05:28N 47°34' W 052°42'0 0.0
2014-Oct-08 04:28N 47°34' W 052°42'0 0.0
2014-Oct-08 03:31N 47°34' W 052°42'0 0.0
2014-Oct-08 02:28N 47°34' W 052°42'0 0.0
2014-Oct-08 01:28N 47°34' W 052°42'0 0.0
2014-Oct-08 00:34N 47°34' W 052°42'0 0.0
2014-Oct-07 23:28N 47°34' W 052°42'0 0.0
2014-Oct-07 22:31N 47°34' W 052°42'0 0.0
2014-Oct-07 21:31N 47°34' W 052°42'0 0.0
2014-Oct-07 17:31N 47°34' W 052°42'0 0.0
2014-Oct-07 16:22N 47°34' W 052°42'0 0.0
2014-Oct-07 15:16N 47°34' W 052°42'0 0.0
2014-Oct-07 14:25N 47°34' W 052°42'0 0.0
2014-Oct-07 09:31N 47°34' W 052°42'0 0.0
2014-Oct-07 08:28N 47°34' W 052°42'0 0.0
2014-Oct-07 07:28N 47°34' W 052°42'0 0.0
2014-Oct-07 06:28N 47°34' W 052°42'0 0.0
2014-Oct-07 05:28N 47°34' W 052°42'0 0.0
2014-Oct-07 04:28N 47°34' W 052°42'0 0.0
2014-Oct-07 03:28N 47°34' W 052°42'0 0.0
2014-Oct-07 02:28N 47°34' W 052°42'0 0.0
2014-Oct-07 01:28N 47°34' W 052°42'0 0.0
2014-Oct-07 00:28N 47°34' W 052°42'0 0.3
2014-Oct-06 23:30N 47°34' W 052°42'  
Track history (hours):
 
Tides and Currents Weather Stations Pressure Air Temp Water Temp Dewpoint Dewpoint Depression Visibility Wind Speed Wind Dir Waves Ship Positions

Maersk Dispatcher

Last reported at 2014-Oct-16 23:17 UTC. Time now 2014-Oct-21 10:26 UTC.
Position N 47°28' W 052°05'.

Length 89 m; draft 6.8 m.

Type: Other ship. MMSI: 316013080.

Date/timePositionNaut miles runAvg speedWind from/ knotsBaromVisibWave heightAir tempDewpointWater temp
2014-Oct-16 23:17N 47°28' W 052°05'912.1
2014-Oct-16 22:31N 47°30' W 052°18'1312.2
2014-Oct-16 21:30N 47°33' W 052°36'4 3.5
2014-Oct-16 20:20N 47°34' W 052°42'0 0.0
2014-Oct-16 19:32N 47°34' W 052°42'0 0.0
2014-Oct-15 13:06N 47°34' W 052°42'0 0.0
2014-Oct-15 12:18N 47°34' W 052°42'0 0.0
2014-Oct-15 11:30N 47°34' W 052°42'0 0.0
2014-Oct-15 10:33N 47°34' W 052°42'0 0.0
2014-Oct-15 09:27N 47°34' W 052°42'0 0.0
2014-Oct-15 08:27N 47°34' W 052°42'0 0.0
2014-Oct-15 07:30N 47°34' W 052°42'0 0.0
2014-Oct-15 06:30N 47°34' W 052°42'0 0.0
2014-Oct-15 05:33N 47°34' W 052°42'0 0.0
2014-Oct-15 04:33N 47°34' W 052°42'0 0.0
2014-Oct-15 03:30N 47°34' W 052°42'0 0.0
2014-Oct-15 02:33N 47°34' W 052°42'0 0.0
2014-Oct-15 01:33N 47°34' W 052°42'0 0.0
2014-Oct-15 00:30N 47°34' W 052°42'0 0.0
2014-Oct-14 23:27N 47°34' W 052°42'0 0.0
2014-Oct-14 22:33N 47°34' W 052°42'0 0.0
2014-Oct-14 21:30N 47°34' W 052°42'0 0.0
2014-Oct-14 20:33N 47°34' W 052°42'0 0.0
2014-Oct-14 19:33N 47°34' W 052°42'0 0.0
2014-Oct-14 18:30N 47°34' W 052°42'0 0.0
2014-Oct-14 17:24N 47°34' W 052°42'0 0.0
2014-Oct-14 16:30N 47°34' W 052°42'0 0.0
2014-Oct-14 15:30N 47°34' W 052°42'0 0.0
2014-Oct-14 14:30N 47°34' W 052°42'0 0.0
2014-Oct-14 13:33N 47°34' W 052°42'0 0.0
2014-Oct-14 12:33N 47°34' W 052°42'0 0.0
2014-Oct-14 11:33N 47°34' W 052°42'0 0.1
2014-Oct-14 09:33N 47°34' W 052°42'0 0.0
2014-Oct-14 08:33N 47°34' W 052°42'0 0.0
2014-Oct-14 07:27N 47°34' W 052°42'0 0.0
2014-Oct-14 06:21N 47°34' W 052°42'0 0.0
2014-Oct-14 05:33N 47°34' W 052°42'0 0.0
2014-Oct-14 04:33N 47°34' W 052°42'0 0.0
2014-Oct-14 03:33N 47°34' W 052°42'0 0.0
2014-Oct-14 02:21N 47°34' W 052°42'2 0.1
2014-Oct-13 10:24N 47°34' W 052°39'7 6.5
2014-Oct-13 09:22N 47°32' W 052°29'6 6.7
2014-Oct-13 08:30N 47°30' W 052°21'  
2014-Oct-09 01:31N 47°28' W 052°04'1514.4
2014-Oct-09 00:30N 47°32' W 052°25'1211.2
2014-Oct-08 23:28N 47°34' W 052°42'0 0.0
2014-Oct-08 22:28N 47°34' W 052°42'0 0.0
2014-Oct-08 21:28N 47°34' W 052°42'0 0.0
2014-Oct-08 20:31N 47°34' W 052°42'0 0.0
2014-Oct-08 19:31N 47°34' W 052°42'0 0.0
2014-Oct-08 18:31N 47°34' W 052°42'0 0.0
2014-Oct-08 17:28N 47°34' W 052°42'0 0.0
2014-Oct-08 16:28N 47°34' W 052°42'0 0.0
2014-Oct-08 15:31N 47°34' W 052°42'0 0.0
2014-Oct-08 14:28N 47°34' W 052°42'0 0.0
2014-Oct-08 13:22N 47°34' W 052°42'0 0.0
2014-Oct-08 12:28N 47°34' W 052°42'0 0.0
2014-Oct-08 11:22N 47°34' W 052°42'0 0.0
2014-Oct-08 10:28N 47°34' W 052°42'0 0.0
2014-Oct-08 09:28N 47°34' W 052°42'0 0.0
2014-Oct-08 08:28N 47°34' W 052°42'0 0.0
2014-Oct-08 07:28N 47°34' W 052°42'0 0.0
2014-Oct-08 06:28N 47°34' W 052°42'0 0.0
2014-Oct-08 05:28N 47°34' W 052°42'0 0.0
2014-Oct-08 04:28N 47°34' W 052°42'0 0.0
2014-Oct-08 03:31N 47°34' W 052°42'0 0.0
2014-Oct-08 02:28N 47°34' W 052°42'0 0.0
2014-Oct-08 01:28N 47°34' W 052°42'0 0.0
2014-Oct-08 00:34N 47°34' W 052°42'0 0.0
2014-Oct-07 23:28N 47°34' W 052°42'0 0.0
2014-Oct-07 22:31N 47°34' W 052°42'0 0.0
2014-Oct-07 21:31N 47°34' W 052°42'0 0.0
2014-Oct-07 17:31N 47°34' W 052°42'0 0.0
2014-Oct-07 16:22N 47°34' W 052°42'0 0.0
2014-Oct-07 15:16N 47°34' W 052°42'0 0.0
2014-Oct-07 14:25N 47°34' W 052°42'0 0.0
2014-Oct-07 09:31N 47°34' W 052°42'0 0.0
2014-Oct-07 08:28N 47°34' W 052°42'0 0.0
2014-Oct-07 07:28N 47°34' W 052°42'0 0.0
2014-Oct-07 06:28N 47°34' W 052°42'0 0.0
2014-Oct-07 05:28N 47°34' W 052°42'0 0.0
2014-Oct-07 04:28N 47°34' W 052°42'0 0.0
2014-Oct-07 03:28N 47°34' W 052°42'0 0.0
2014-Oct-07 02:28N 47°34' W 052°42'0 0.0
2014-Oct-07 01:28N 47°34' W 052°42'0 0.0
2014-Oct-07 00:28N 47°34' W 052°42'0 0.3
2014-Oct-06 23:30N 47°34' W 052°42'  

Dump ship's entire track history